Time;durP1;ratioP1;P1;durP2;ratioP2;P2;SDS_P1;SDS_P2;PMS_P1;PMS_P2;Temp;Humidity;BMP_temperature;BMP_pressure;BME280_temperature;BME280_humidity;BME280_pressure;Samples;Min_cycle;Max_cycle;Signal;HPM_P1;HPM_P2
2024/01/09 00:01:54;;;;;;;3.78;1.80;;;;;;;17.92;28.48;103195.53;4969943;28;20065;-69
2024/01/09 00:04:20;;;;;;;2.92;1.60;;;;;;;17.86;28.63;103183.44;4968754;28;20030;-72
2024/01/09 00:06:45;;;;;;;3.17;1.52;;;;;;;17.88;28.66;103196.59;4970191;28;20031;-71
2024/01/09 00:09:10;;;;;;;4.10;1.60;;;;;;;17.87;28.68;103197.50;4969838;28;20031;-70
2024/01/09 00:11:35;;;;;;;3.72;1.70;;;;;;;17.84;28.79;103187.06;4969496;28;20027;-70
2024/01/09 00:14:01;;;;;;;3.42;1.67;;;;;;;17.81;28.63;103189.84;4969727;28;20122;-70
2024/01/09 00:16:26;;;;;;;3.43;1.80;;;;;;;17.77;28.66;103182.06;4969498;28;20147;-70
2024/01/09 00:18:54;;;;;;;2.92;1.60;;;;;;;17.70;28.43;103175.31;4969543;28;21090;-70
2024/01/09 00:21:20;;;;;;;3.50;1.73;;;;;;;17.70;28.57;103166.56;4969670;28;20113;-70
2024/01/09 00:23:45;;;;;;;3.45;1.83;;;;;;;17.78;28.43;103180.28;4970281;28;20117;-69
2024/01/09 00:26:12;;;;;;;3.63;1.60;;;;;;;17.73;28.45;103180.47;4970049;28;20031;-70
2024/01/09 00:28:37;;;;;;;3.67;1.70;;;;;;;17.74;28.40;103181.34;4969926;28;20501;-70
2024/01/09 00:31:03;;;;;;;3.22;1.70;;;;;;;17.66;28.27;103170.28;4969797;28;20048;-70
2024/01/09 00:33:28;;;;;;;3.70;1.83;;;;;;;17.74;28.59;103182.19;4968659;28;20034;-71
2024/01/09 00:35:53;;;;;;;3.22;1.65;;;;;;;17.67;28.37;103174.59;4969973;28;20113;-71
2024/01/09 00:38:19;;;;;;;3.45;1.60;;;;;;;17.70;28.19;103180.59;4970151;28;20031;-69
2024/01/09 00:40:45;;;;;;;3.45;1.75;;;;;;;17.64;28.35;103172.97;4969247;28;20415;-71
2024/01/09 00:43:13;;;;;;;3.13;1.42;;;;;;;17.68;28.13;103187.72;4969362;28;21139;-72
2024/01/09 00:45:39;;;;;;;3.28;1.70;;;;;;;17.55;28.49;103162.81;4968233;28;20125;-70
2024/01/09 00:48:04;;;;;;;3.20;1.52;;;;;;;17.63;28.32;103180.94;4969628;28;20139;-70
2024/01/09 00:50:29;;;;;;;3.10;1.70;;;;;;;17.65;28.24;103184.38;4969069;28;20035;-71
2024/01/09 00:52:55;;;;;;;3.85;1.73;;;;;;;17.63;28.31;103180.94;4969677;28;20121;-70
2024/01/09 00:55:20;;;;;;;3.20;1.67;;;;;;;17.52;28.41;103161.16;4969399;28;20058;-71
2024/01/09 00:57:46;;;;;;;4.47;1.73;;;;;;;17.51;27.80;103161.22;4969407;28;20027;-71
2024/01/09 01:00:11;;;;;;;2.85;1.35;;;;;;;17.52;28.28;103160.31;4968341;28;20066;-70
2024/01/09 01:02:37;;;;;;;3.25;1.60;;;;;;;17.55;28.01;103182.13;4968518;28;20047;-70
2024/01/09 01:05:02;;;;;;;3.75;2.05;;;;;;;17.47;28.43;103173.69;4969206;28;20078;-71
2024/01/09 01:07:28;;;;;;;3.10;1.48;;;;;;;17.53;28.01;103178.69;4969243;28;20037;-71
2024/01/09 01:09:53;;;;;;;3.42;1.70;;;;;;;17.45;28.10;103164.09;4968747;28;20149;-70
2024/01/09 01:12:18;;;;;;;3.55;1.60;;;;;;;17.52;28.15;103179.59;4969107;28;20130;-71
2024/01/09 01:14:43;;;;;;;3.60;1.60;;;;;;;17.31;28.03;103144.47;4969193;28;20456;-71
2024/01/09 01:17:09;;;;;;;3.25;1.65;;;;;;;17.48;28.30;103174.53;4969126;28;20084;-72
2024/01/09 01:19:34;;;;;;;3.53;1.80;;;;;;;17.43;27.79;103169.44;4969096;28;20088;-70
2024/01/09 01:21:59;;;;;;;4.45;1.95;;;;;;;17.47;27.85;103183.38;4969155;28;20034;-71
2024/01/09 01:24:25;;;;;;;2.95;1.50;;;;;;;17.44;27.72;103179.06;4968872;28;20445;-71
2024/01/09 01:26:50;;;;;;;3.17;1.52;;;;;;;17.28;28.02;103146.38;4968587;28;20034;-71
2024/01/09 01:29:15;;;;;;;3.38;1.73;;;;;;;17.41;28.20;103174.78;4968865;28;20429;-70
2024/01/09 01:31:40;;;;;;;3.30;1.70;;;;;;;17.38;28.10;103179.31;4968463;28;20039;-69
2024/01/09 01:34:06;;;;;;;4.65;2.00;;;;;;;17.37;27.51;103181.09;4969002;28;20039;-70
2024/01/09 01:36:31;;;;;;;3.42;1.70;;;;;;;17.38;27.72;103187.22;4968508;28;20058;-72
2024/01/09 01:38:56;;;;;;;4.00;1.93;;;;;;;17.36;27.74;103183.81;4966764;28;20041;-71
2024/01/09 01:41:22;;;;;;;3.27;1.63;;;;;;;17.37;27.64;103196.94;4968185;28;20752;-72
2024/01/09 01:43:47;;;;;;;3.40;1.67;;;;;;;17.25;27.71;103168.44;4968476;28;20269;-71
2024/01/09 01:46:12;;;;;;;3.55;1.60;;;;;;;17.33;27.86;103186.56;4967638;28;20431;-71
2024/01/09 01:48:38;;;;;;;3.50;1.70;;;;;;;17.33;27.88;103187.41;4966814;28;20047;-70
2024/01/09 01:51:06;;;;;;;3.83;1.83;;;;;;;17.22;27.63;103164.13;4967833;28;20046;-70
2024/01/09 01:53:33;;;;;;;3.05;1.65;;;;;;;17.20;27.85;103171.25;4968305;28;20913;-71
2024/01/09 01:55:59;;;;;;;3.25;1.58;;;;;;;17.19;27.98;103166.03;4968183;28;20105;-70
2024/01/09 01:58:26;;;;;;;3.83;1.92;;;;;;;17.26;27.99;103178.06;4968350;28;20031;-69
2024/01/09 02:00:52;;;;;;;3.60;1.60;;;;;;;17.26;27.84;103171.91;4968347;28;20034;-71
2024/01/09 02:03:18;;;;;;;3.60;1.70;;;;;;;17.18;28.01;103170.47;4967598;28;20035;-71
2024/01/09 02:05:45;;;;;;;3.65;1.65;;;;;;;17.17;27.81;103166.09;4967823;28;20038;-70
2024/01/09 02:08:12;;;;;;;3.42;1.50;;;;;;;17.21;27.67;103174.72;4968007;28;20027;-70
2024/01/09 02:10:37;;;;;;;3.35;1.75;;;;;;;17.22;27.82;103184.38;4967651;28;20415;-70
2024/01/09 02:13:03;;;;;;;3.40;1.70;;;;;;;17.17;27.65;103171.38;4967998;28;20049;-71
2024/01/09 02:15:29;;;;;;;3.28;1.55;;;;;;;17.21;27.72;103172.09;4968326;28;20031;-71
2024/01/09 02:17:54;;;;;;;3.40;1.70;;;;;;;17.09;27.35;103162.91;4968398;28;20038;-70
2024/01/09 02:20:22;;;;;;;3.08;1.60;;;;;;;17.10;27.63;103159.38;4968226;28;20130;-70
2024/01/09 02:22:48;;;;;;;3.50;1.58;;;;;;;17.15;27.88;103167.09;4968135;28;20085;-69
2024/01/09 02:25:14;;;;;;;4.20;1.92;;;;;;;17.12;27.66;103161.94;4967436;28;20043;-71
2024/01/09 02:28:00;;;;;;;4.10;1.95;;;;;;;17.07;27.50;103163.88;4968029;28;20070;-70
2024/01/09 02:30:26;;;;;;;3.40;1.75;;;;;;;17.06;27.67;103159.56;4967672;28;20034;-70
2024/01/09 02:32:52;;;;;;;3.00;1.67;;;;;;;17.06;27.58;103162.19;4968131;28;20047;-69
2024/01/09 02:35:18;;;;;;;3.75;1.73;;;;;;;17.04;27.83;103157.00;4967955;28;20062;-72
2024/01/09 02:37:43;;;;;;;4.28;1.75;;;;;;;17.13;27.35;103174.19;4965996;28;20066;-71
2024/01/09 02:40:09;;;;;;;3.25;1.58;;;;;;;17.10;27.38;103172.56;4967061;28;20092;-69
2024/01/09 02:42:34;;;;;;;3.53;1.80;;;;;;;17.08;27.71;103169.09;4967036;28;20035;-69
2024/01/09 02:45:00;;;;;;;3.70;1.70;;;;;;;17.08;27.34;103163.81;4967480;28;20085;-70
2024/01/09 02:47:26;;;;;;;3.10;1.70;;;;;;;16.98;27.60;103150.16;4966511;28;20511;-71
2024/01/09 02:49:52;;;;;;;3.42;1.60;;;;;;;17.02;27.64;103164.94;4967101;28;20027;-70
2024/01/09 02:52:18;;;;;;;4.07;1.95;;;;;;;16.95;27.37;103144.19;4966792;28;20427;-69
2024/01/09 02:54:44;;;;;;;3.55;1.60;;;;;;;16.95;27.35;103145.03;4967089;28;20568;-70
2024/01/09 02:57:11;;;;;;;3.75;1.77;;;;;;;16.96;27.46;103145.91;4967239;28;20506;-70
2024/01/09 02:59:36;;;;;;;3.92;1.95;;;;;;;17.02;27.55;103159.69;4967573;28;20604;-70
2024/01/09 03:02:02;;;;;;;3.30;1.52;;;;;;;17.00;27.65;103153.59;4966714;28;20057;-70
2024/01/09 03:04:27;;;;;;;3.50;2.00;;;;;;;17.04;27.61;103151.72;4967105;28;20617;-70
2024/01/09 03:06:52;;;;;;;2.95;1.50;;;;;;;17.00;27.33;103148.31;4967123;28;20038;-70
2024/01/09 03:09:18;;;;;;;3.83;1.85;;;;;;;16.99;27.57;103144.00;4967214;28;20050;-71
2024/01/09 03:11:43;;;;;;;3.55;1.77;;;;;;;17.01;27.52;103149.19;4967192;28;20035;-70
2024/01/09 03:14:09;;;;;;;3.72;1.70;;;;;;;17.02;27.39;103145.63;4967603;28;20035;-70
2024/01/09 03:16:34;;;;;;;3.45;1.60;;;;;;;17.00;27.51;103144.84;4967499;28;20413;-70
2024/01/09 03:18:59;;;;;;;3.70;1.80;;;;;;;17.01;27.26;103154.47;4967566;28;20494;-70
2024/01/09 03:21:24;;;;;;;3.70;1.95;;;;;;;17.01;27.46;103150.06;4967555;28;20035;-69
2024/01/09 03:23:50;;;;;;;5.05;2.22;;;;;;;17.00;27.28;103150.09;4970058;28;20034;-70
2024/01/09 03:26:15;;;;;;;4.28;1.67;;;;;;;16.92;27.61;103134.59;4971139;28;20035;-70
2024/01/09 03:28:40;;;;;;;3.67;1.80;;;;;;;16.96;27.52;103136.22;4970976;28;20038;-70
2024/01/09 03:31:06;;;;;;;3.58;1.77;;;;;;;16.94;27.53;103135.44;4971042;28;20130;-70
2024/01/09 03:33:31;;;;;;;3.53;1.73;;;;;;;16.92;27.27;103133.75;4970473;28;20034;-68
2024/01/09 03:35:58;;;;;;;3.40;1.58;;;;;;;16.94;27.26;103135.44;4971032;28;20026;-69
2024/01/09 03:38:23;;;;;;;4.47;2.03;;;;;;;16.95;27.32;103138.91;4970683;28;20375;-69
2024/01/09 03:40:50;;;;;;;3.40;1.42;;;;;;;16.94;27.35;103129.28;4970745;28;20027;-70
2024/01/09 03:43:15;;;;;;;3.88;1.85;;;;;;;17.04;27.27;103146.44;4969010;28;20030;-70
2024/01/09 03:45:40;;;;;;;4.13;1.85;;;;;;;16.98;27.40;103137.00;4970398;28;20058;-69
2024/01/09 03:48:06;;;;;;;4.00;1.95;;;;;;;16.99;27.50;103137.84;4970139;28;20035;-70
2024/01/09 03:50:31;;;;;;;3.72;1.60;;;;;;;16.99;27.46;103143.13;4970610;28;20041;-70
2024/01/09 03:52:56;;;;;;;3.63;1.80;;;;;;;16.94;27.14;103130.16;4970357;28;20034;-70
2024/01/09 03:55:23;;;;;;;3.65;1.45;;;;;;;16.99;27.74;103135.22;4970118;28;20795;-69
2024/01/09 03:57:48;;;;;;;3.30;1.73;;;;;;;17.01;27.35;103133.41;4970441;28;20073;-70
2024/01/09 04:00:14;;;;;;;3.75;1.80;;;;;;;16.97;27.63;103130.03;4969644;28;20034;-71
2024/01/09 04:02:40;;;;;;;3.47;1.80;;;;;;;17.06;27.55;103147.25;4968906;28;20392;-71
2024/01/09 04:05:06;;;;;;;3.13;1.52;;;;;;;17.07;27.34;103142.81;4969751;28;20034;-69
2024/01/09 04:07:31;;;;;;;3.00;1.60;;;;;;;17.07;27.45;103145.44;4970308;28;20118;-69
2024/01/09 04:09:56;;;;;;;3.47;1.90;;;;;;;16.97;27.45;103127.41;4970038;28;20579;-69
2024/01/09 04:12:22;;;;;;;3.25;1.40;;;;;;;16.96;27.42;103120.41;4969936;28;20038;-72
2024/01/09 04:14:47;;;;;;;3.67;1.80;;;;;;;17.07;27.26;103137.53;4970060;28;20029;-70
2024/01/09 04:17:12;;;;;;;3.10;1.50;;;;;;;17.00;27.17;103129.88;4969514;28;20039;-70
2024/01/09 04:19:39;;;;;;;3.30;1.50;;;;;;;17.02;27.22;103129.81;4969883;28;20113;-70
2024/01/09 04:22:05;;;;;;;4.03;1.75;;;;;;;16.96;27.25;103120.41;4969754;28;20047;-72
2024/01/09 04:24:31;;;;;;;3.40;1.80;;;;;;;17.00;26.94;103129.88;4969897;28;20082;-69
2024/01/09 04:26:57;;;;;;;4.22;1.90;;;;;;;17.04;27.02;103146.44;4970040;28;20139;-70
2024/01/09 04:29:22;;;;;;;3.88;1.92;;;;;;;17.06;27.03;103141.97;4969660;28;20078;-71
2024/01/09 04:31:47;;;;;;;3.15;1.70;;;;;;;17.01;27.11;103131.59;4968945;28;20481;-70
2024/01/09 04:34:12;;;;;;;3.35;1.40;;;;;;;17.00;27.37;103144.84;4969476;28;20119;-71
2024/01/09 04:36:38;;;;;;;4.20;1.90;;;;;;;17.04;26.90;103146.44;4969154;28;20033;-70
2024/01/09 04:39:03;;;;;;;3.72;1.70;;;;;;;17.01;27.03;103147.41;4969517;28;20483;-70
2024/01/09 04:41:28;;;;;;;3.63;1.92;;;;;;;17.06;27.42;103152.50;4969474;28;20038;-70
2024/01/09 04:43:54;;;;;;;3.40;1.52;;;;;;;17.05;27.29;103156.03;4969664;28;20132;-72
2024/01/09 04:46:19;;;;;;;3.70;1.80;;;;;;;17.04;27.43;103144.66;4968752;28;20047;-68
2024/01/09 04:48:44;;;;;;;3.22;1.70;;;;;;;17.01;27.02;103134.25;4969160;28;20468;-70
2024/01/09 04:51:09;;;;;;;3.50;1.48;;;;;;;16.95;27.01;103126.59;4968768;28;20173;-71
2024/01/09 04:53:35;;;;;;;4.20;1.70;;;;;;;17.04;27.10;103146.44;4969195;28;20026;-69
2024/01/09 04:56:00;;;;;;;3.28;1.55;;;;;;;16.96;27.42;103138.00;4969084;28;20034;-70
2024/01/09 04:58:25;;;;;;;2.88;1.48;;;;;;;17.00;27.17;103136.94;4969107;28;20795;-70
2024/01/09 05:00:51;;;;;;;3.47;1.60;;;;;;;17.01;27.36;103144.78;4969285;28;20050;-69
2024/01/09 05:03:16;;;;;;;3.70;1.77;;;;;;;17.01;27.44;103144.78;4968256;28;20038;-70
2024/01/09 05:05:41;;;;;;;3.17;1.50;;;;;;;17.04;27.24;103139.38;4969103;28;20082;-71
2024/01/09 05:08:07;;;;;;;3.33;1.50;;;;;;;17.00;27.01;103136.94;4969048;28;20046;-69
2024/01/09 05:10:32;;;;;;;3.70;1.73;;;;;;;17.04;27.13;103142.03;4969375;28;20094;-71
2024/01/09 05:12:58;;;;;;;3.45;1.60;;;;;;;16.93;27.08;103120.53;4969027;28;20039;-70
2024/01/09 05:15:23;;;;;;;3.35;1.67;;;;;;;16.97;27.12;103132.66;4969280;28;20034;-70
2024/01/09 05:17:48;;;;;;;3.63;1.80;;;;;;;17.00;27.39;103139.56;4968847;28;20082;-70
2024/01/09 05:20:14;;;;;;;3.28;1.60;;;;;;;17.01;27.09;103138.66;4969008;28;20046;-70
2024/01/09 05:22:39;;;;;;;3.53;1.80;;;;;;;16.99;27.01;103144.00;4968479;28;20058;-71
2024/01/09 05:25:06;;;;;;;3.40;1.60;;;;;;;16.93;27.19;103128.44;4969101;28;20105;-69
2024/01/09 05:27:32;;;;;;;3.25;1.65;;;;;;;17.01;27.52;103143.94;4969163;28;20388;-69
2024/01/09 05:29:57;;;;;;;3.17;1.50;;;;;;;16.98;28.18;103144.06;4968556;28;20030;-70
2024/01/09 05:32:22;;;;;;;3.53;1.60;;;;;;;17.01;28.41;103139.50;4968477;28;20470;-69
2024/01/09 05:34:47;;;;;;;3.17;1.52;;;;;;;17.05;29.02;103142.88;4968545;28;20030;-70
2024/01/09 05:37:13;;;;;;;2.85;1.42;;;;;;;17.07;28.83;103138.41;4968629;28;20110;-69
2024/01/09 05:39:38;;;;;;;3.13;1.50;;;;;;;17.09;28.53;103128.66;4968123;28;20034;-71
2024/01/09 05:42:04;;;;;;;3.55;1.60;;;;;;;17.13;28.65;103121.50;4968244;28;20085;-68
2024/01/09 05:44:29;;;;;;;3.63;1.73;;;;;;;17.25;28.32;103135.97;4968248;28;20042;-68
2024/01/09 05:46:54;;;;;;;3.00;1.50;;;;;;;17.21;28.51;103128.19;4966172;28;20047;-70
2024/01/09 05:49:19;;;;;;;3.33;1.60;;;;;;;17.35;28.56;103145.19;4968257;28;20038;-72
2024/01/09 05:51:45;;;;;;;2.90;1.40;;;;;;;17.36;28.58;103145.13;4967711;28;20292;-71
2024/01/09 05:54:10;;;;;;;3.28;1.60;;;;;;;17.29;28.26;103119.06;4968411;28;20054;-71
2024/01/09 05:56:37;;;;;;;2.97;1.23;;;;;;;17.34;28.13;103133.78;4968261;28;20043;-70
2024/01/09 05:59:02;;;;;;;2.83;1.30;;;;;;;17.36;28.47;103134.56;4967122;28;20038;-71
2024/01/09 06:01:27;;;;;;;3.38;1.50;;;;;;;17.40;28.34;103130.91;4968399;28;20031;-71
2024/01/09 06:03:53;;;;;;;3.35;1.50;;;;;;;17.45;28.54;103140.38;4967520;28;20038;-71
2024/01/09 06:06:18;;;;;;;3.35;1.80;;;;;;;17.50;28.35;103144.53;4968291;28;20034;-70
2024/01/09 06:08:44;;;;;;;3.80;1.60;;;;;;;17.54;28.54;103145.25;4968212;28;20093;-69
2024/01/09 06:11:09;;;;;;;3.80;1.60;;;;;;;17.46;28.36;103128.91;4968232;28;20488;-70
2024/01/09 06:13:34;;;;;;;2.88;1.42;;;;;;;17.56;28.38;103139.00;4968159;28;20066;-69
2024/01/09 06:15:59;;;;;;;3.10;1.52;;;;;;;17.51;28.51;103126.94;4968060;28;20034;-69
2024/01/09 06:18:25;;;;;;;2.93;1.33;;;;;;;17.51;28.40;103135.69;4968046;28;20038;-70
2024/01/09 06:20:50;;;;;;;3.00;1.30;;;;;;;17.49;28.27;103127.00;4968031;28;20331;-69
2024/01/09 06:23:15;;;;;;;4.45;1.60;;;;;;;17.61;28.50;103143.22;4968063;28;20085;-69
2024/01/09 06:25:41;;;;;;;3.03;1.50;;;;;;;17.57;28.37;103143.34;4968278;28;20047;-70
2024/01/09 06:28:06;;;;;;;2.88;1.58;;;;;;;17.59;28.74;103146.78;4967759;28;20424;-69
2024/01/09 06:30:34;;;;;;;2.80;1.50;;;;;;;17.61;28.52;103154.66;4966400;28;20084;-70
2024/01/09 06:32:59;;;;;;;3.38;1.65;;;;;;;17.61;28.59;103152.00;4967606;28;20109;-69
2024/01/09 06:35:24;;;;;;;2.88;1.40;;;;;;;17.63;28.78;103165.97;4967818;28;20452;-70
2024/01/09 06:37:50;;;;;;;2.63;1.33;;;;;;;17.58;28.67;103157.41;4967919;28;20032;-69
2024/01/09 06:40:19;;;;;;;3.72;1.67;;;;;;;17.61;28.70;103161.69;4967621;28;21016;-69
2024/01/09 06:42:45;;;;;;;3.05;1.50;;;;;;;17.54;28.66;103154.03;4967144;28;20434;-69
2024/01/09 06:45:10;;;;;;;3.47;1.58;;;;;;;17.60;28.55;103171.38;4967451;28;20042;-69
2024/01/09 06:47:36;;;;;;;3.28;1.55;;;;;;;17.60;28.72;103174.00;4967466;28;20027;-70
2024/01/09 06:50:03;;;;;;;3.22;1.73;;;;;;;17.59;28.45;103173.16;4967528;28;20093;-69
2024/01/09 06:52:29;;;;;;;3.13;1.63;;;;;;;17.53;28.42;103162.00;4967569;28;20050;-68
2024/01/09 06:54:54;;;;;;;3.60;1.55;;;;;;;17.58;28.33;103173.22;4965704;28;20050;-70
2024/01/09 06:57:19;;;;;;;3.60;1.45;;;;;;;17.58;28.24;103171.44;4966453;28;20480;-70
2024/01/09 06:59:46;;;;;;;3.17;1.50;;;;;;;17.59;28.36;103173.16;4970158;28;20038;-71
2024/01/09 07:02:11;;;;;;;3.28;1.60;;;;;;;17.49;28.65;103148.09;4970247;28;20161;-70
2024/01/09 07:04:37;;;;;;;3.45;1.77;;;;;;;17.51;28.43;103158.56;4969692;28;20129;-71
2024/01/09 07:07:02;;;;;;;3.95;1.90;;;;;;;17.51;28.30;103155.94;4971127;28;20030;-70
2024/01/09 07:09:27;;;;;;;3.70;1.88;;;;;;;17.61;28.44;103173.09;4971263;28;20030;-72
2024/01/09 07:11:52;;;;;;;3.60;1.67;;;;;;;17.55;28.27;103165.44;4970302;28;20038;-69
2024/01/09 07:14:18;;;;;;;3.72;1.77;;;;;;;17.60;28.48;103181.91;4970785;28;20027;-71
2024/01/09 07:16:43;;;;;;;3.67;1.60;;;;;;;17.53;28.43;103159.34;4971298;28;20042;-70
2024/01/09 07:19:08;;;;;;;2.83;1.30;;;;;;;17.55;28.31;103173.34;4969865;28;20039;-71
2024/01/09 07:21:33;;;;;;;3.55;1.50;;;;;;;17.62;28.19;103180.06;4970757;28;20276;-70
2024/01/09 07:23:59;;;;;;;4.13;1.60;;;;;;;17.62;28.12;103184.50;4970959;28;20046;-69
2024/01/09 07:26:24;;;;;;;2.95;1.60;;;;;;;17.52;28.25;103161.16;4971067;28;20031;-69
2024/01/09 07:28:49;;;;;;;3.42;1.70;;;;;;;17.62;28.11;103171.31;4970503;28;20051;-69
2024/01/09 07:31:15;;;;;;;2.95;1.50;;;;;;;17.54;28.34;103163.72;4970776;28;20439;-70
2024/01/09 07:33:40;;;;;;;3.58;1.92;;;;;;;17.55;28.52;103174.19;4970555;28;20042;-70
2024/01/09 07:36:06;;;;;;;3.77;1.80;;;;;;;17.64;28.35;103199.34;4970593;28;20456;-70
2024/01/09 07:38:31;;;;;;;3.65;1.60;;;;;;;17.56;28.58;103186.47;4970735;28;20268;-68
2024/01/09 07:40:56;;;;;;;3.80;1.73;;;;;;;17.63;28.43;103199.41;4971016;28;20037;-69
2024/01/09 07:43:21;;;;;;;3.40;1.70;;;;;;;17.66;28.57;103204.56;4970601;28;20326;-71
2024/01/09 07:45:47;;;;;;;3.70;1.92;;;;;;;17.56;27.91;103189.13;4970626;28;20403;-69
2024/01/09 07:48:13;;;;;;;4.10;1.77;;;;;;;17.58;28.16;103186.41;4970595;28;20057;-71
2024/01/09 07:50:38;;;;;;;3.50;1.70;;;;;;;17.63;27.50;103194.97;4970839;28;20394;-70
2024/01/09 07:53:03;;;;;;;3.55;1.85;;;;;;;17.59;27.71;103193.38;4970656;28;20121;-70
2024/01/09 07:55:29;;;;;;;3.72;1.92;;;;;;;17.58;27.53;103191.69;4970110;28;20107;-70
2024/01/09 07:57:54;;;;;;;3.25;1.88;;;;;;;17.66;28.08;103208.03;4969747;28;20117;-70
2024/01/09 08:00:19;;;;;;;4.25;1.80;;;;;;;17.62;27.76;103198.53;4970240;28;20065;-69
2024/01/09 08:02:45;;;;;;;4.65;1.85;;;;;;;17.66;27.88;103205.41;4969308;28;20122;-71
2024/01/09 08:05:10;;;;;;;3.13;1.50;;;;;;;17.66;27.96;103205.41;4969691;28;20122;-71
2024/01/09 08:07:36;;;;;;;4.38;1.95;;;;;;;17.58;28.16;103184.63;4970029;28;20049;-71
2024/01/09 08:10:01;;;;;;;4.03;1.65;;;;;;;17.69;27.92;103207.91;4969500;28;20211;-70
2024/01/09 08:12:26;;;;;;;3.33;1.70;;;;;;;17.79;28.26;103223.34;4970045;28;20093;-70
2024/01/09 08:14:53;;;;;;;2.95;1.40;;;;;;;17.70;28.06;103211.41;4970080;28;20110;-69
2024/01/09 08:17:18;;;;;;;3.08;1.63;;;;;;;17.71;28.16;103206.06;4970095;28;20031;-70
2024/01/09 08:19:45;;;;;;;4.00;1.90;;;;;;;17.81;28.37;103221.50;4969971;28;20566;-70
2024/01/09 08:22:10;;;;;;;4.00;1.80;;;;;;;17.78;28.18;103219.84;4970267;28;20058;-69
2024/01/09 08:24:36;;;;;;;3.15;1.52;;;;;;;17.82;28.36;103224.06;4970186;28;20105;-70
2024/01/09 08:27:02;;;;;;;3.25;1.65;;;;;;;17.82;28.37;103217.94;4970210;28;20609;-70
2024/01/09 08:29:28;;;;;;;3.60;1.73;;;;;;;17.77;28.39;103219.00;4970094;28;20045;-69
2024/01/09 08:31:53;;;;;;;3.30;1.50;;;;;;;17.76;28.21;103208.50;4969846;28;20041;-69
2024/01/09 08:34:19;;;;;;;3.85;1.73;;;;;;;17.80;28.40;103215.38;4969955;28;20033;-70
2024/01/09 08:36:46;;;;;;;4.30;2.05;;;;;;;17.87;28.61;103227.38;4969645;28;20130;-69
2024/01/09 08:39:14;;;;;;;4.75;1.85;;;;;;;17.80;28.46;103212.75;4969368;28;20498;-69
2024/01/09 08:41:41;;;;;;;3.40;1.70;;;;;;;17.87;28.85;103223.88;4969526;28;20096;-70
2024/01/09 08:44:07;;;;;;;3.35;1.70;;;;;;;17.88;28.81;103222.97;4969670;28;20046;-71
2024/01/09 08:46:33;;;;;;;4.30;1.70;;;;;;;17.82;29.03;103216.16;4969774;28;20073;-71
2024/01/09 08:48:59;;;;;;;4.03;1.85;;;;;;;17.82;29.03;103210.88;4969400;28;20039;-69
2024/01/09 08:51:24;;;;;;;3.75;1.90;;;;;;;17.89;29.18;103230.81;4969701;28;20125;-70
2024/01/09 08:53:53;;;;;;;3.70;1.70;;;;;;;17.81;28.96;103213.59;4969671;28;20042;-70
2024/01/09 08:56:19;;;;;;;3.88;1.90;;;;;;;17.83;29.24;103217.00;4969640;28;20030;-70
2024/01/09 08:58:44;;;;;;;3.33;1.52;;;;;;;17.82;29.30;103215.31;4969586;28;20041;-70
2024/01/09 09:01:10;;;;;;;3.75;1.83;;;;;;;17.90;29.15;103229.06;4969222;28;20030;-70
2024/01/09 09:03:36;;;;;;;3.85;1.77;;;;;;;17.90;29.10;103232.53;4965574;28;20043;-69
2024/01/09 09:06:02;;;;;;;3.28;1.80;;;;;;;17.93;29.12;103231.56;4967896;28;20084;-68
2024/01/09 09:08:27;;;;;;;4.60;2.00;;;;;;;17.92;28.79;103238.59;4968814;28;20045;-69
2024/01/09 09:10:52;;;;;;;3.58;1.80;;;;;;;17.86;28.96;103230.91;4967874;28;20133;-68
2024/01/09 09:13:18;;;;;;;3.70;1.83;;;;;;;17.88;29.11;103226.50;4968160;28;20058;-68
2024/01/09 09:15:43;;;;;;;3.65;1.83;;;;;;;17.88;28.98;103229.13;4968189;28;20034;-69
2024/01/09 09:18:08;;;;;;;2.97;1.55;;;;;;;17.94;28.79;103231.50;4968112;28;20074;-69
2024/01/09 09:20:33;;;;;;;3.80;1.90;;;;;;;17.88;28.58;103220.34;4965702;28;20034;-69
2024/01/09 09:22:59;;;;;;;3.80;2.00;;;;;;;17.91;29.10;103230.75;4966281;28;20534;-70
2024/01/09 09:25:24;;;;;;;4.40;1.95;;;;;;;17.97;29.04;103233.13;4967524;28;20038;-69
2024/01/09 09:27:49;;;;;;;3.30;1.70;;;;;;;17.97;29.06;103235.78;4964419;28;20037;-70
2024/01/09 09:30:15;;;;;;;3.42;1.73;;;;;;;17.93;28.79;103221.00;4965217;28;20158;-70
2024/01/09 09:32:40;;;;;;;3.80;1.95;;;;;;;18.02;29.00;103232.94;4966739;28;20038;-71
2024/01/09 09:35:06;;;;;;;2.85;1.35;;;;;;;17.92;29.17;103216.66;4967174;28;20038;-69
2024/01/09 09:37:31;;;;;;;3.53;1.70;;;;;;;17.95;29.04;103227.06;4968000;28;20027;-70
2024/01/09 09:39:56;;;;;;;4.10;1.70;;;;;;;17.90;29.40;103219.34;4969045;28;20031;-68
2024/01/09 09:42:24;;;;;;;4.47;1.80;;;;;;;17.98;29.25;103229.59;4968492;28;20153;-71
2024/01/09 09:44:54;;;;;;;3.88;1.65;;;;;;;18.00;28.94;103235.63;4968488;28;20039;-71
2024/01/09 09:47:21;;;;;;;3.38;1.85;;;;;;;18.00;28.87;103230.38;4968351;28;20063;-70
2024/01/09 09:49:49;;;;;;;3.95;2.00;;;;;;;17.91;28.86;103215.81;4968742;28;20062;-70
2024/01/09 09:52:14;;;;;;;3.90;1.90;;;;;;;17.98;28.86;103228.75;4968084;28;20045;-70
2024/01/09 09:54:41;;;;;;;3.85;1.67;;;;;;;17.97;29.13;103224.38;4967841;28;20039;-70
2024/01/09 09:57:06;;;;;;;4.00;2.10;;;;;;;17.95;29.18;103229.72;4968003;28;20046;-69
2024/01/09 09:59:32;;;;;;;4.45;1.73;;;;;;;17.95;28.95;103227.91;4967846;28;20027;-69
2024/01/09 10:02:04;;;;;;;3.08;1.30;;;;;;;17.90;29.38;103214.06;4967110;28;20373;-70
2024/01/09 10:04:45;;;;;;;3.50;1.63;;;;;;;17.89;29.21;103212.34;4967999;28;20033;-70
2024/01/09 10:07:11;;;;;;;3.95;1.85;;;;;;;17.95;29.48;103221.78;4967621;28;20033;-69
2024/01/09 10:09:45;;;;;;;4.47;1.70;;;;;;;17.91;28.99;103204.38;4967488;28;20395;-70
2024/01/09 10:12:10;;;;;;;3.73;1.80;;;;;;;17.88;29.36;103202.75;4968045;28;20034;-69
2024/01/09 10:14:35;;;;;;;3.22;1.60;;;;;;;18.00;29.36;103216.31;4967698;28;20027;-70
2024/01/09 10:17:03;;;;;;;3.38;1.73;;;;;;;17.99;29.40;103220.75;4968104;28;20039;-70
2024/01/09 10:19:29;;;;;;;3.45;1.73;;;;;;;17.97;29.08;103205.91;4968017;28;20440;-70
2024/01/09 10:21:55;;;;;;;3.78;1.80;;;;;;;17.99;29.11;103212.84;4967440;28;20038;-70
2024/01/09 10:24:20;;;;;;;3.78;1.67;;;;;;;17.96;29.18;103199.78;4967898;28;20523;-70
2024/01/09 10:26:50;;;;;;;4.03;1.60;;;;;;;17.92;29.33;103198.19;4968293;28;20392;-70
2024/01/09 10:29:15;;;;;;;3.33;1.60;;;;;;;17.92;29.08;103192.91;4967798;28;20505;-70
2024/01/09 10:31:45;;;;;;;3.42;1.77;;;;;;;17.92;28.86;103198.19;4967670;28;20070;-70
2024/01/09 10:34:11;;;;;;;3.92;2.05;;;;;;;18.00;28.86;103211.91;4967736;28;20413;-69
2024/01/09 10:36:36;;;;;;;4.85;1.88;;;;;;;17.99;28.75;103204.94;4967831;28;20046;-70
2024/01/09 10:39:04;;;;;;;4.10;2.08;;;;;;;17.99;28.96;103201.41;4967643;28;20030;-70
2024/01/09 10:41:30;;;;;;;3.13;1.60;;;;;;;17.99;29.00;103198.78;4967545;28;20580;-71
2024/01/09 10:43:55;;;;;;;4.15;1.70;;;;;;;18.02;28.95;103204.75;4967312;28;20107;-69
2024/01/09 10:46:24;;;;;;;3.42;1.58;;;;;;;17.99;29.01;103197.00;4967236;28;20081;-70
2024/01/09 10:48:51;;;;;;;3.47;1.67;;;;;;;17.95;29.02;103190.13;4967100;28;20518;-71
2024/01/09 10:51:18;;;;;;;3.60;1.80;;;;;;;17.93;29.10;103178.81;4965799;28;20085;-69
2024/01/09 10:53:47;;;;;;;3.33;1.70;;;;;;;17.95;29.13;103175.16;4967198;28;20526;-69
2024/01/09 10:56:17;;;;;;;3.67;1.80;;;;;;;18.05;29.02;103190.59;4967467;28;20035;-70
2024/01/09 10:58:45;;;;;;;3.10;1.60;;;;;;;17.95;29.22;103179.59;4967450;28;20082;-69
2024/01/09 11:01:10;;;;;;;3.55;1.90;;;;;;;18.02;29.49;103180.16;4967331;28;20037;-70
2024/01/09 11:03:36;;;;;;;3.17;1.60;;;;;;;17.93;29.53;103158.53;4966941;28;20054;-69
2024/01/09 11:06:03;;;;;;;4.10;1.75;;;;;;;17.99;29.53;103160.06;4967546;28;20077;-70
2024/01/09 11:08:32;;;;;;;3.30;1.52;;;;;;;18.04;29.25;103167.75;4967381;28;20472;-70
2024/01/09 11:10:58;;;;;;;4.15;1.88;;;;;;;17.97;29.58;103155.78;4967389;28;20476;-70
2024/01/09 11:13:24;;;;;;;4.97;1.60;;;;;;;17.96;29.40;103147.00;4967161;28;20037;-70
2024/01/09 11:15:54;;;;;;;3.25;1.55;;;;;;;18.01;29.17;103146.78;4966596;28;20066;-70
2024/01/09 11:18:22;;;;;;;4.10;1.70;;;;;;;18.04;29.36;103155.44;4967279;28;20034;-69